Tudo Por Deus — CUHB8 — position and weather

sailwx.info

Track history (hours):
 
Tides and Currents Weather Stations Pressure Air Temp Water Temp Dewpoint Dewpoint Depression Visibility Wind Speed Wind Dir Waves Ship Positions

Tudo Por Deus

Last reported at 2017-Sep-21 20:16 UTC. Time now 2017-Sep-22 10:15 UTC.
Position N 39°10' W 009°28'.

Length 21 m.

Type: Fishing. MMSI: 263414960.

Date/timePositionNaut miles runAvg speedWind from/ knotsBaromVisibWave heightAir tempDewpointWater temp
2017-Sep-21 20:16N 39°10' W 009°28'0 1.6
2017-Sep-21 20:00N 39°10' W 009°28'1 1.0
2017-Sep-21 19:30N 39°10' W 009°28'0 0.5
2017-Sep-21 19:00N 39°10' W 009°27'1 2.8
2017-Sep-21 18:30N 39°09' W 009°26'1 1.5
2017-Sep-21 18:00N 39°10' W 009°26'3 5.9
2017-Sep-21 17:30N 39°13' W 009°26'3 0.1
2017-Sep-20 20:33N 39°11' W 009°28'1 9.9
2017-Sep-20 20:29N 39°10' W 009°28'4 7.6
2017-Sep-20 20:00N 39°07' W 009°30'0 0.7
2017-Sep-20 19:30N 39°07' W 009°30'0 0.5
2017-Sep-20 19:00N 39°08' W 009°29'2 3.4
2017-Sep-20 18:30N 39°08' W 009°27'4 7.5
2017-Sep-20 18:00N 39°11' W 009°24'9 0.4
2017-Sep-19 19:26N 39°20' W 009°26'0 0.4
2017-Sep-19 18:55N 39°20' W 009°26'12 0.5
2017-Sep-18 20:40N 39°08' W 009°28'1 9.8
2017-Sep-18 20:30N 39°07' W 009°28'3 6.4
2017-Sep-18 20:00N 39°04' W 009°30'0 0.9
2017-Sep-18 19:31N 39°04' W 009°30'0 0.9
2017-Sep-18 19:01N 39°05' W 009°29'1 1.1
2017-Sep-18 18:30N 39°04' W 009°29'3 6.4
2017-Sep-18 18:01N 39°06' W 009°26'4 8.1
2017-Sep-18 17:30N 39°02' W 009°26'5 9.9
2017-Sep-18 17:00N 38°57' W 009°27'2 3.5
2017-Sep-18 16:30N 38°55' W 009°27'0 0.3
2017-Sep-18 16:00N 38°56' W 009°27'16 7.4
2017-Sep-18 13:50N 39°11' W 009°23'  
2017-Sep-14 20:19N 39°13' W 009°22'1 0.0
2017-Sep-12 20:29N 39°13' W 009°24'0 0.2
2017-Sep-12 19:28N 39°13' W 009°23'  
Track history (hours):
 
Tides and Currents Weather Stations Pressure Air Temp Water Temp Dewpoint Dewpoint Depression Visibility Wind Speed Wind Dir Waves Ship Positions

Tudo Por Deus

Last reported at 2017-Sep-21 20:16 UTC. Time now 2017-Sep-22 10:15 UTC.
Position N 39°10' W 009°28'.

Length 21 m.

Type: Fishing. MMSI: 263414960.

Date/timePositionNaut miles runAvg speedWind from/ knotsBaromVisibWave heightAir tempDewpointWater temp
2017-Sep-21 20:16N 39°10' W 009°28'0 1.6
2017-Sep-21 20:00N 39°10' W 009°28'1 1.0
2017-Sep-21 19:30N 39°10' W 009°28'0 0.5
2017-Sep-21 19:00N 39°10' W 009°27'1 2.8
2017-Sep-21 18:30N 39°09' W 009°26'1 1.5
2017-Sep-21 18:00N 39°10' W 009°26'3 5.9
2017-Sep-21 17:30N 39°13' W 009°26'3 0.1
2017-Sep-20 20:33N 39°11' W 009°28'1 9.9
2017-Sep-20 20:29N 39°10' W 009°28'4 7.6
2017-Sep-20 20:00N 39°07' W 009°30'0 0.7
2017-Sep-20 19:30N 39°07' W 009°30'0 0.5
2017-Sep-20 19:00N 39°08' W 009°29'2 3.4
2017-Sep-20 18:30N 39°08' W 009°27'4 7.5
2017-Sep-20 18:00N 39°11' W 009°24'9 0.4
2017-Sep-19 19:26N 39°20' W 009°26'0 0.4
2017-Sep-19 18:55N 39°20' W 009°26'12 0.5
2017-Sep-18 20:40N 39°08' W 009°28'1 9.8
2017-Sep-18 20:30N 39°07' W 009°28'3 6.4
2017-Sep-18 20:00N 39°04' W 009°30'0 0.9
2017-Sep-18 19:31N 39°04' W 009°30'0 0.9
2017-Sep-18 19:01N 39°05' W 009°29'1 1.1
2017-Sep-18 18:30N 39°04' W 009°29'3 6.4
2017-Sep-18 18:01N 39°06' W 009°26'4 8.1
2017-Sep-18 17:30N 39°02' W 009°26'5 9.9
2017-Sep-18 17:00N 38°57' W 009°27'2 3.5
2017-Sep-18 16:30N 38°55' W 009°27'0 0.3
2017-Sep-18 16:00N 38°56' W 009°27'16 7.4
2017-Sep-18 13:50N 39°11' W 009°23'  
2017-Sep-14 20:19N 39°13' W 009°22'1 0.0
2017-Sep-12 20:29N 39°13' W 009°24'0 0.2
2017-Sep-12 19:28N 39°13' W 009°23'  

Dump ship's entire track history